createdAt,value
2022-10-19T00:01:02.826Z,11.30
2022-10-19T00:03:33.003Z,8.95
2022-10-19T00:06:01.305Z,8.80
2022-10-19T00:08:29.038Z,10.75
2022-10-19T00:10:56.715Z,14.05
2022-10-19T00:13:25.784Z,10.85
2022-10-19T00:15:53.460Z,9.40
2022-10-19T00:18:21.338Z,9.88
2022-10-19T00:20:48.994Z,11.85
2022-10-19T00:23:16.762Z,18.05
2022-10-19T00:25:44.454Z,9.50
2022-10-19T00:28:12.103Z,9.60
2022-10-19T00:30:41.160Z,13.60
2022-10-19T00:33:08.883Z,11.15
2022-10-19T00:35:41.290Z,11.63
2022-10-19T00:38:08.982Z,12.93
2022-10-19T00:40:38.762Z,8.68
2022-10-19T00:43:10.587Z,10.40
2022-10-19T00:45:38.302Z,10.10
2022-10-19T00:48:07.479Z,11.27
2022-10-19T00:50:35.253Z,7.95
2022-10-19T00:53:02.988Z,9.40
2022-10-19T00:55:30.733Z,8.98
2022-10-19T00:57:58.721Z,7.47
2022-10-19T01:00:26.746Z,11.60
2022-10-19T01:02:54.827Z,9.27
2022-10-19T01:05:24.250Z,8.82
2022-10-19T01:07:52.150Z,10.00
2022-10-19T01:10:29.907Z,17.50
2022-10-19T01:13:11.727Z,10.65
2022-10-19T01:15:47.852Z,8.70
2022-10-19T01:18:21.794Z,8.27
2022-10-19T01:21:13.696Z,10.35
2022-10-19T01:24:02.182Z,9.63
2022-10-19T01:26:47.639Z,7.88
2022-10-19T01:29:23.752Z,5.60
2022-10-19T01:32:01.713Z,15.45
2022-10-19T01:34:34.820Z,9.90
2022-10-19T01:37:08.191Z,9.63
2022-10-19T01:39:45.221Z,7.80
2022-10-19T01:42:25.054Z,10.00
2022-10-19T01:44:56.177Z,8.60
2022-10-19T01:47:28.508Z,9.32
2022-10-19T01:50:02.128Z,12.65
2022-10-19T01:52:30.776Z,8.65
2022-10-19T01:55:03.820Z,8.18
2022-10-19T01:57:35.763Z,9.70
2022-10-19T02:00:08.887Z,12.05
2022-10-19T02:03:04.538Z,7.00
2022-10-19T02:05:34.534Z,9.70
2022-10-19T02:08:06.656Z,7.38
2022-10-19T02:10:36.205Z,8.82
2022-10-19T02:13:05.327Z,10.13
2022-10-19T02:15:35.938Z,5.10
2022-10-19T02:18:06.957Z,7.00
2022-10-19T02:20:36.402Z,5.30
2022-10-19T02:23:05.058Z,8.20
2022-10-19T02:25:33.061Z,5.43
2022-10-19T02:28:01.851Z,7.07
2022-10-19T02:30:29.813Z,17.90
2022-10-19T02:32:57.567Z,7.88
2022-10-19T02:35:26.732Z,6.93
2022-10-19T02:37:55.743Z,5.88
2022-10-19T02:40:23.883Z,6.85
2022-10-19T02:42:58.180Z,10.23
2022-10-19T02:45:29.996Z,11.80
2022-10-19T02:48:03.014Z,8.75
2022-10-19T02:50:32.671Z,8.85
2022-10-19T02:53:00.829Z,7.88
2022-10-19T02:55:29.731Z,9.20
2022-10-19T02:57:58.101Z,11.50
2022-10-19T03:00:25.923Z,9.60
2022-10-19T03:02:53.646Z,12.23
2022-10-19T03:05:21.364Z,9.65
2022-10-19T03:07:50.451Z,11.05
2022-10-19T03:10:18.261Z,9.98
2022-10-19T03:12:45.964Z,19.88
2022-10-19T03:15:16.696Z,12.30
2022-10-19T03:17:44.722Z,10.73
2022-10-19T03:20:13.258Z,11.07
2022-10-19T03:22:41.017Z,14.50
2022-10-19T03:25:10.414Z,6.93
2022-10-19T03:27:38.115Z,7.28
2022-10-19T03:30:06.433Z,9.32
2022-10-19T03:32:34.314Z,6.05
2022-10-19T03:35:02.010Z,7.43
2022-10-19T03:37:29.751Z,9.38
2022-10-19T03:39:57.427Z,9.07
2022-10-19T03:42:26.453Z,6.95
2022-10-19T03:44:54.225Z,6.88
2022-10-19T03:47:21.906Z,7.88
2022-10-19T03:49:50.455Z,5.72
2022-10-19T03:52:21.474Z,7.18
2022-10-19T03:54:57.214Z,7.53
2022-10-19T03:57:26.300Z,11.30
2022-10-19T03:59:54.207Z,6.25
2022-10-19T04:02:21.920Z,8.25
2022-10-19T04:04:49.606Z,7.35
2022-10-19T04:07:17.267Z,6.28
2022-10-19T04:09:45.547Z,10.95
2022-10-19T04:12:13.270Z,15.10
2022-10-19T04:14:56.717Z,6.90
2022-10-19T04:17:26.116Z,9.10
2022-10-19T04:19:53.817Z,10.98
2022-10-19T04:22:21.599Z,9.45
2022-10-19T04:24:49.294Z,7.88
2022-10-19T04:27:17.091Z,6.50
2022-10-19T04:29:46.161Z,7.00
2022-10-19T04:32:13.865Z,9.55
2022-10-19T04:34:41.542Z,8.65
2022-10-19T04:37:09.246Z,7.00
2022-10-19T04:39:39.474Z,6.70
2022-10-19T04:42:07.207Z,11.02
2022-10-19T04:44:34.948Z,8.05
2022-10-19T04:47:04.028Z,7.70
2022-10-19T04:49:57.520Z,15.98
2022-10-19T04:52:50.311Z,14.43
2022-10-19T04:55:18.448Z,12.70
2022-10-19T05:01:22.225Z,9.73
2022-10-19T05:06:28.125Z,9.50
2022-10-19T05:08:56.299Z,9.45
2022-10-19T05:11:25.587Z,11.57
2022-10-19T05:13:53.338Z,7.72
2022-10-19T05:16:23.103Z,13.30
2022-10-19T05:18:55.904Z,8.35
2022-10-19T05:21:24.018Z,10.35
2022-10-19T05:23:53.358Z,6.88
2022-10-19T05:26:23.036Z,10.40
2022-10-19T05:28:56.074Z,10.65
2022-10-19T05:31:25.477Z,9.23
2022-10-19T05:33:57.180Z,10.10
2022-10-19T05:36:27.066Z,13.13
2022-10-19T05:38:56.724Z,14.55
2022-10-19T05:41:26.465Z,12.80
2022-10-19T05:43:55.922Z,9.10
2022-10-19T05:46:24.370Z,12.52
2022-10-19T05:48:52.050Z,26.08
2022-10-19T05:51:22.716Z,9.05
2022-10-19T05:53:51.163Z,8.88
2022-10-19T05:56:22.578Z,11.02
2022-10-19T05:58:50.866Z,10.70
2022-10-19T06:01:19.809Z,16.08
2022-10-19T06:03:48.453Z,15.70
2022-10-19T06:06:16.194Z,11.75
2022-10-19T06:08:46.503Z,12.98
2022-10-19T06:11:16.094Z,9.40
2022-10-19T06:13:45.858Z,8.25
2022-10-19T06:16:15.888Z,9.70
2022-10-19T06:18:43.906Z,8.38
2022-10-19T06:21:13.272Z,7.80
2022-10-19T06:26:18.150Z,8.27
2022-10-19T06:28:48.909Z,6.78
2022-10-19T06:31:18.036Z,7.45
2022-10-19T06:33:49.170Z,10.35
2022-10-19T06:36:19.479Z,10.10
2022-10-19T06:38:48.451Z,9.10
2022-10-19T06:41:17.991Z,10.68
2022-10-19T06:43:49.961Z,7.60
2022-10-19T06:46:20.481Z,7.50
2022-10-19T06:48:52.039Z,10.57
2022-10-19T06:51:20.126Z,11.88
2022-10-19T06:53:48.965Z,8.77
2022-10-19T06:56:21.154Z,9.75
2022-10-19T06:58:49.834Z,10.77
2022-10-19T07:01:18.358Z,10.80
2022-10-19T07:03:53.531Z,9.70
2022-10-19T07:06:23.298Z,9.52
2022-10-19T07:08:51.023Z,11.88
2022-10-19T07:11:23.794Z,11.23
2022-10-19T07:13:53.569Z,5.95
2022-10-19T07:16:22.346Z,5.60
2022-10-19T07:18:51.821Z,3.90
2022-10-19T07:21:23.962Z,9.53
2022-10-19T07:23:51.804Z,3.90
2022-10-19T07:26:23.300Z,10.33
2022-10-19T07:28:53.178Z,7.33
2022-10-19T07:31:23.535Z,15.10
2022-10-19T07:33:56.319Z,5.13
2022-10-19T07:36:25.449Z,3.30
2022-10-19T07:38:53.348Z,6.83
2022-10-19T07:41:22.489Z,7.30
2022-10-19T07:43:52.539Z,8.77
2022-10-19T07:46:22.173Z,6.93
2022-10-19T07:48:50.663Z,5.43
2022-10-19T07:51:19.661Z,3.77
2022-10-19T07:53:47.726Z,6.10
2022-10-19T07:56:18.101Z,7.33
2022-10-19T07:58:45.998Z,5.00
2022-10-19T08:01:16.741Z,4.97
2022-10-19T08:06:35.604Z,4.10
2022-10-19T08:09:06.339Z,4.40
2022-10-19T08:11:35.739Z,4.17
2022-10-19T08:14:04.448Z,3.40
2022-10-19T08:16:40.118Z,3.47
2022-10-19T08:19:09.844Z,3.30
2022-10-19T08:21:38.633Z,2.77
2022-10-19T08:24:07.597Z,3.83
2022-10-19T08:26:38.008Z,3.90
2022-10-19T08:29:09.769Z,2.73
2022-10-19T08:31:39.418Z,2.60
2022-10-19T08:34:07.700Z,2.80
2022-10-19T08:36:36.974Z,3.00
2022-10-19T08:39:06.242Z,2.90
2022-10-19T08:41:38.714Z,2.07
2022-10-19T08:44:26.726Z,3.13
2022-10-19T08:47:06.089Z,7.47
2022-10-19T08:49:36.543Z,3.83
2022-10-19T08:52:09.110Z,4.43
2022-10-19T08:54:44.168Z,3.43
2022-10-19T08:57:24.442Z,3.30
2022-10-19T09:00:00.571Z,3.20
2022-10-19T09:02:46.412Z,4.03
2022-10-19T09:05:21.850Z,2.90
2022-10-19T09:07:52.971Z,3.03
2022-10-19T09:10:30.444Z,3.10
2022-10-19T09:13:01.323Z,4.70
2022-10-19T09:15:39.306Z,5.60
2022-10-19T09:18:12.594Z,2.67
2022-10-19T09:20:44.942Z,2.30
2022-10-19T09:23:23.077Z,3.30
2022-10-19T09:25:51.975Z,3.80
2022-10-19T09:28:38.855Z,2.47
2022-10-19T09:31:15.922Z,3.37
2022-10-19T09:33:53.082Z,3.30
2022-10-19T09:36:27.617Z,2.23
2022-10-19T09:39:00.948Z,2.07
2022-10-19T09:41:29.015Z,1.80
2022-10-19T09:43:57.534Z,4.83
2022-10-19T09:46:36.182Z,3.07
2022-10-19T09:49:07.778Z,1.90
2022-10-19T09:51:52.108Z,2.90
2022-10-19T09:54:32.799Z,2.90
2022-10-19T09:57:00.598Z,2.17
2022-10-19T09:59:32.211Z,4.07
2022-10-19T10:02:11.784Z,3.53
2022-10-19T10:04:40.890Z,2.93
2022-10-19T10:07:17.033Z,2.73
2022-10-19T10:09:45.954Z,2.17
2022-10-19T10:12:16.467Z,2.57
2022-10-19T10:14:45.540Z,4.73
2022-10-19T10:17:17.790Z,4.00
2022-10-19T10:20:15.295Z,2.70
2022-10-19T10:22:54.187Z,4.30
2022-10-19T10:25:22.516Z,2.30
2022-10-19T10:27:58.414Z,3.03
2022-10-19T10:30:29.831Z,2.53
2022-10-19T10:33:04.662Z,3.17
2022-10-19T10:35:49.788Z,3.40
2022-10-19T10:38:23.503Z,4.10
2022-10-19T10:40:55.444Z,8.70
2022-10-19T10:43:30.195Z,3.53
2022-10-19T10:46:02.311Z,5.10
2022-10-19T10:48:32.733Z,3.60
2022-10-19T10:51:02.494Z,2.73
2022-10-19T10:53:37.267Z,3.20
2022-10-19T10:56:07.426Z,4.00
2022-10-19T10:58:43.328Z,3.10
2022-10-19T11:01:20.813Z,4.60
2022-10-19T11:03:55.149Z,5.00
2022-10-19T11:06:26.184Z,3.90
2022-10-19T11:09:04.198Z,2.87
2022-10-19T11:11:37.864Z,2.90
2022-10-19T11:14:27.900Z,3.10
2022-10-19T11:17:00.654Z,4.27
2022-10-19T11:19:36.013Z,4.10
2022-10-19T11:22:13.503Z,3.23
2022-10-19T11:25:00.643Z,4.60
2022-10-19T11:27:39.238Z,3.57
2022-10-19T11:30:12.121Z,3.87
2022-10-19T11:32:47.715Z,5.83
2022-10-19T11:35:31.158Z,3.40
2022-10-19T11:38:20.637Z,6.07
2022-10-19T11:41:18.246Z,3.00
2022-10-19T11:44:03.970Z,4.70
2022-10-19T11:46:41.415Z,4.63
2022-10-19T11:49:21.411Z,5.13
2022-10-19T11:51:58.720Z,4.40
2022-10-19T11:54:39.790Z,4.97
2022-10-19T11:57:14.241Z,4.37
2022-10-19T12:00:00.304Z,5.67
2022-10-19T12:03:21.291Z,5.13
2022-10-19T12:06:01.829Z,5.37
2022-10-19T12:08:45.440Z,4.60
2022-10-19T12:11:27.447Z,4.83
2022-10-19T12:14:00.601Z,3.97
2022-10-19T12:16:39.884Z,7.03
2022-10-19T12:19:17.191Z,3.63
2022-10-19T12:21:46.846Z,5.13
2022-10-19T12:24:18.023Z,4.87
2022-10-19T12:26:47.750Z,3.83
2022-10-19T12:29:18.545Z,4.93
2022-10-19T12:31:47.937Z,4.50
2022-10-19T12:34:27.622Z,2.67
2022-10-19T12:36:59.805Z,5.57
2022-10-19T12:39:38.986Z,7.10
2022-10-19T12:42:16.868Z,4.00
2022-10-19T12:45:07.622Z,4.57
2022-10-19T12:47:36.923Z,5.17
2022-10-19T12:50:11.879Z,5.13
2022-10-19T12:52:44.339Z,4.67
2022-10-19T12:55:31.295Z,3.67
2022-10-19T12:58:02.542Z,3.33
2022-10-19T13:00:37.640Z,4.97
2022-10-19T13:03:08.413Z,3.80
2022-10-19T13:05:37.774Z,3.93
2022-10-19T13:08:10.581Z,3.33
2022-10-19T13:10:41.597Z,4.70
2022-10-19T13:13:40.388Z,4.63
2022-10-19T13:16:41.363Z,5.07
2022-10-19T13:19:24.331Z,2.87
2022-10-19T13:22:18.747Z,3.30
2022-10-19T13:25:23.390Z,4.57
2022-10-19T13:27:51.918Z,6.43
2022-10-19T13:30:49.402Z,4.50
2022-10-19T13:33:46.964Z,3.40
2022-10-19T13:36:16.194Z,7.60
2022-10-19T13:38:46.512Z,2.73
2022-10-19T13:41:19.257Z,5.17
2022-10-19T13:44:02.527Z,2.90
2022-10-19T13:46:45.350Z,3.57
2022-10-19T13:49:32.615Z,3.80
2022-10-19T13:52:18.600Z,3.90
2022-10-19T13:55:13.937Z,4.43
2022-10-19T13:58:00.443Z,4.13
2022-10-19T14:00:31.826Z,2.43
2022-10-19T14:03:11.925Z,2.63
2022-10-19T14:06:10.054Z,4.03
2022-10-19T14:09:12.447Z,3.00
2022-10-19T14:11:48.044Z,4.33
2022-10-19T14:14:21.591Z,3.50
2022-10-19T14:16:55.224Z,3.03
2022-10-19T14:19:28.714Z,4.00
2022-10-19T14:21:58.407Z,6.27
2022-10-19T14:24:31.377Z,5.27
2022-10-19T14:27:03.029Z,3.80
2022-10-19T14:29:34.498Z,4.13
2022-10-19T14:32:03.051Z,3.57
2022-10-19T14:34:31.034Z,2.17
2022-10-19T14:36:58.825Z,5.53
2022-10-19T14:39:31.240Z,5.37
2022-10-19T14:42:06.647Z,4.40
2022-10-19T14:44:40.790Z,3.57
2022-10-19T14:47:18.369Z,2.30
2022-10-19T14:49:49.087Z,3.03
2022-10-19T14:52:23.493Z,3.33
2022-10-19T14:54:54.163Z,2.43
2022-10-19T14:57:28.378Z,2.87
2022-10-19T15:00:00.730Z,2.57
2022-10-19T15:02:34.713Z,4.30
2022-10-19T15:05:07.562Z,1.40
2022-10-19T15:07:39.030Z,2.67
2022-10-19T15:10:17.084Z,1.77
2022-10-19T15:12:46.826Z,3.50
2022-10-19T15:15:19.661Z,3.27
2022-10-19T15:17:53.257Z,5.43
2022-10-19T15:20:26.254Z,2.23
2022-10-19T15:22:54.036Z,4.20
2022-10-19T15:25:29.282Z,1.90
2022-10-19T15:27:58.842Z,5.00
2022-10-19T15:30:31.991Z,2.73
2022-10-19T15:33:15.426Z,8.33
2022-10-19T15:35:45.233Z,2.33
2022-10-19T15:38:21.579Z,2.43
2022-10-19T15:40:49.646Z,3.50
2022-10-19T15:43:39.759Z,4.30
2022-10-19T15:46:20.751Z,5.60
2022-10-19T15:48:52.507Z,6.97
2022-10-19T15:51:39.219Z,3.73
2022-10-19T15:54:08.302Z,6.83
2022-10-19T15:56:37.620Z,3.23
2022-10-19T15:59:11.537Z,3.30
2022-10-19T16:01:39.347Z,4.27
2022-10-19T16:04:07.236Z,7.13
2022-10-19T16:06:37.563Z,5.17
2022-10-19T16:09:08.501Z,7.53
2022-10-19T16:11:36.461Z,3.73
2022-10-19T16:14:05.572Z,3.60
2022-10-19T16:16:34.566Z,3.63
2022-10-19T16:19:02.406Z,5.83
2022-10-19T16:21:32.403Z,3.70
2022-10-19T16:24:00.300Z,5.97
2022-10-19T16:26:28.366Z,3.70
2022-10-19T16:28:56.482Z,6.03
2022-10-19T16:31:25.662Z,7.67
2022-10-19T16:33:53.410Z,4.53
2022-10-19T16:36:21.198Z,8.82
2022-10-19T16:38:49.366Z,6.85
2022-10-19T16:41:17.500Z,4.17
2022-10-19T16:43:45.286Z,6.55
2022-10-19T16:46:13.003Z,4.45
2022-10-19T16:48:42.063Z,5.90
2022-10-19T16:51:28.963Z,6.72
2022-10-19T16:53:58.860Z,5.03
2022-10-19T16:56:28.734Z,3.00
2022-10-19T16:58:58.199Z,10.77
2022-10-19T17:01:26.348Z,2.72
2022-10-19T17:03:55.939Z,6.45
2022-10-19T17:06:24.459Z,4.60
2022-10-19T17:09:23.676Z,3.83
2022-10-19T17:11:41.458Z,5.10
2022-10-19T17:14:12.636Z,5.85
2022-10-19T17:16:41.092Z,5.25
2022-10-19T17:19:11.653Z,3.08
2022-10-19T17:21:41.955Z,6.10
2022-10-19T17:24:21.702Z,10.55
2022-10-19T17:26:52.868Z,7.47
2022-10-19T17:29:25.415Z,7.20
2022-10-19T17:31:56.998Z,11.55
2022-10-19T17:34:28.715Z,4.30
2022-10-19T17:36:58.731Z,6.65
2022-10-19T17:39:29.024Z,9.27
2022-10-19T17:42:01.292Z,8.90
2022-10-19T17:44:30.438Z,4.47
2022-10-19T17:46:58.243Z,4.22
2022-10-19T17:49:25.991Z,7.53
2022-10-19T17:51:56.241Z,4.40
2022-10-19T17:54:24.095Z,5.82
2022-10-19T17:56:51.908Z,8.85
2022-10-19T17:59:30.196Z,8.00
2022-10-19T18:02:03.110Z,6.45
2022-10-19T18:04:31.004Z,4.78
2022-10-19T18:07:00.101Z,6.45
2022-10-19T18:09:27.806Z,23.42
2022-10-19T18:11:55.473Z,9.38
2022-10-19T18:14:23.229Z,10.82
2022-10-19T18:16:52.150Z,13.57
2022-10-19T18:19:19.917Z,17.20
2022-10-19T18:21:49.149Z,10.68
2022-10-19T18:24:21.367Z,9.27
2022-10-19T18:26:53.858Z,8.27
2022-10-19T18:29:24.100Z,8.10
2022-10-19T18:31:52.856Z,8.07
2022-10-19T18:34:22.716Z,8.10
2022-10-19T18:36:55.283Z,7.90
2022-10-19T18:39:24.407Z,9.50
2022-10-19T18:41:54.320Z,9.55
2022-10-19T18:44:26.358Z,5.57
2022-10-19T18:46:55.189Z,6.88
2022-10-19T18:49:23.825Z,13.00
2022-10-19T18:51:55.078Z,6.70
2022-10-19T18:54:26.016Z,7.95
2022-10-19T18:56:53.798Z,6.97
2022-10-19T18:59:21.529Z,9.77
2022-10-19T19:01:53.135Z,12.77
2022-10-19T19:04:24.283Z,11.68
2022-10-19T19:06:53.856Z,6.88
2022-10-19T19:09:21.726Z,7.15
2022-10-19T19:11:52.744Z,6.50
2022-10-19T19:14:21.855Z,6.00
2022-10-19T19:16:49.781Z,6.63
2022-10-19T19:19:18.878Z,6.97
2022-10-19T19:21:49.884Z,7.47
2022-10-19T19:24:20.140Z,6.82
2022-10-19T19:26:52.002Z,8.48
2022-10-19T19:29:21.132Z,9.18
2022-10-19T19:31:49.157Z,14.05
2022-10-19T19:34:17.380Z,10.00
2022-10-19T19:36:47.888Z,9.45
2022-10-19T19:39:18.629Z,9.48
2022-10-19T19:41:46.851Z,9.68
2022-10-19T19:44:16.457Z,10.55
2022-10-19T19:46:44.347Z,9.05
2022-10-19T19:49:12.402Z,14.40
2022-10-19T19:51:40.228Z,7.40
2022-10-19T19:54:08.048Z,9.77
2022-10-19T19:56:37.174Z,11.35
2022-10-19T19:59:04.971Z,8.23
2022-10-19T20:01:36.450Z,6.72
2022-10-19T20:04:06.379Z,9.38
2022-10-19T20:06:37.566Z,7.90
2022-10-19T20:09:06.743Z,8.68
2022-10-19T20:11:36.189Z,8.35
2022-10-19T20:14:07.571Z,10.60
2022-10-19T20:16:37.210Z,8.63
2022-10-19T20:19:08.108Z,8.60
2022-10-19T20:21:36.173Z,12.98
2022-10-19T20:24:07.299Z,9.45
2022-10-19T20:26:35.323Z,9.15
2022-10-19T20:29:04.249Z,11.82
2022-10-19T20:31:33.513Z,10.93
2022-10-19T20:34:07.570Z,9.32
2022-10-19T20:36:36.391Z,10.55
2022-10-19T20:39:04.322Z,10.75
2022-10-19T20:41:34.773Z,10.95
2022-10-19T20:44:02.812Z,11.60
2022-10-19T20:46:36.865Z,17.25
2022-10-19T20:49:07.278Z,13.82
2022-10-19T20:51:37.733Z,12.30
2022-10-19T20:54:08.984Z,13.85
2022-10-19T20:56:38.506Z,10.00
2022-10-19T20:59:07.665Z,14.55
2022-10-19T21:01:37.678Z,12.48
2022-10-19T21:04:09.588Z,10.48
2022-10-19T21:06:41.686Z,12.13
2022-10-19T21:09:10.356Z,14.20
2022-10-19T21:11:40.398Z,14.55
2022-10-19T21:14:09.530Z,14.73
2022-10-19T21:16:38.432Z,9.80
2022-10-19T21:19:09.596Z,14.90
2022-10-19T21:21:39.590Z,13.20
2022-10-19T21:24:09.163Z,15.82
2022-10-19T21:26:37.807Z,13.02
2022-10-19T21:29:09.278Z,14.75
2022-10-19T21:31:45.222Z,19.05
2022-10-19T21:34:19.274Z,10.43
2022-10-19T21:36:47.214Z,15.30
2022-10-19T21:39:15.195Z,10.52
2022-10-19T21:41:42.890Z,14.85
2022-10-19T21:44:11.146Z,12.05
2022-10-19T21:46:38.871Z,16.90
2022-10-19T21:49:06.565Z,14.02
2022-10-19T21:51:38.024Z,17.10
2022-10-19T21:54:07.815Z,13.60
2022-10-19T21:56:37.276Z,14.05
2022-10-19T21:59:05.271Z,16.08
2022-10-19T22:01:38.533Z,13.80
2022-10-19T22:04:11.827Z,16.13
2022-10-19T22:06:41.563Z,15.65
2022-10-19T22:09:12.676Z,27.80
2022-10-19T22:11:42.827Z,11.38
2022-10-19T22:14:12.246Z,13.43
2022-10-19T22:16:41.718Z,11.77
2022-10-19T22:19:09.943Z,11.88
2022-10-19T22:24:13.971Z,13.38
2022-10-19T22:26:43.683Z,14.43
2022-10-19T22:29:11.754Z,11.30
2022-10-19T22:31:40.336Z,12.90
2022-10-19T22:34:11.051Z,13.57
2022-10-19T22:36:39.011Z,15.35
2022-10-19T22:39:07.781Z,22.45
2022-10-19T22:42:20.851Z,11.43
2022-10-19T22:45:52.232Z,14.88
2022-10-19T22:49:23.618Z,12.57
2022-10-19T22:52:55.032Z,15.00
2022-10-19T22:56:26.412Z,10.63
2022-10-19T22:59:57.860Z,11.35
2022-10-19T23:03:29.262Z,9.52
2022-10-19T23:07:00.732Z,8.23
2022-10-19T23:10:32.323Z,11.48
2022-10-19T23:14:03.758Z,6.38
2022-10-19T23:17:35.516Z,10.88
2022-10-19T23:21:07.083Z,13.95
2022-10-19T23:24:38.501Z,9.50
2022-10-19T23:27:31.518Z,8.65
2022-10-19T23:29:59.458Z,8.52
2022-10-19T23:32:28.348Z,14.32
2022-10-19T23:34:56.162Z,15.90
2022-10-19T23:37:23.911Z,9.70
2022-10-19T23:39:51.667Z,15.07
2022-10-19T23:42:19.410Z,10.25
2022-10-19T23:44:48.435Z,11.25
2022-10-19T23:47:16.280Z,10.10
2022-10-19T23:49:43.971Z,12.20
2022-10-19T23:52:11.867Z,9.85
2022-10-19T23:54:39.759Z,8.93
2022-10-19T23:57:07.490Z,11.40
2022-10-19T23:59:35.187Z,8.63
